Ana Sayfa
METAR-TAF:

METAR-TAF

Havaalanları :

Dalian Zhoushuizi Uluslararası Havalimanı

Dalian, Çin

Enlem: 38-54N, Boylam: 121-38E, yükseklik: 97 m

Güncel hava durumu gözlemi

Rapor saat 11:30 UTC de 23 dakika önce yapıldı.
Rüzgar kuzey/kuzeybatıdan 14 kt, kuzeybatı ve kuzey arasında değişken
Sıcaklık -4°C
Nem 63%
Basınç 1022 hPa
Görüş mesafesi: 7000 m

METAR: ZYTL 291130Z 34007MPS 310V010 7000 NSC M04/M10 Q1022 NOSIG

Saat: 19:53 (11:53 UTC)

Tahmin

Rapor saat 09:14 UTC de 2 saat ve 39 dakika önce yapıldı.
Ayın 29'si saat 12 UTC'den ayın 30'si saat 12 UTC'ye kadar geçerli Tahmin
Rüzgar kuzey/kuzeybatıdan 14 kt ve 25 kt'a kadar ani rüzgarlar
Görüş mesafesi: 5000 m
Pus

TAF: ZYTL 290914Z 2912/3012 34007G13MPS 5000 BR NSC TXM01/3006Z TNM07/2921Z

4.000'den fazla havaalanı için hava durumu gözlemleri ve tahminleri (METAR ve TAF raporları).

Kullanılabilir istasyonlar harita üzerinde sarı ve kırmızı noktalarla gösterilir.

İstasyonun adını görmek için fareyi noktanın üzerinde gezdirin.

Sonrasında hava gözlem ve tahminlerini görmek için tıklayın.

Haritayı değiştirmek için: yaklaştırmak için siyah artı işaretli yeşil düğmeye ve uzaklaştırmak için de eksi işaretli düğmeye hızla tıklayın; bitişik haritalar için yeşil okları kullanın.


METAR-TAF: